sensor_id;sensor_type;location;lat;lon;timestamp;P1;durP1;ratioP1;P2;durP2;ratioP2
15183;SDS011;7693;49.266;7.104;2023-05-07T05:36:24;3.90;;;3.70;;
15183;SDS011;7693;49.266;7.104;2023-05-07T05:38:49;4.40;;;4.10;;
15183;SDS011;7693;49.266;7.104;2023-05-07T05:41:15;3.53;;;3.33;;
15183;SDS011;7693;49.266;7.104;2023-05-07T05:43:41;4.13;;;3.43;;
15183;SDS011;7693;49.266;7.104;2023-05-07T05:46:06;3.73;;;3.43;;
15183;SDS011;7693;49.266;7.104;2023-05-07T05:48:33;4.20;;;3.57;;
15183;SDS011;7693;49.266;7.104;2023-05-07T05:50:59;3.20;;;3.10;;
15183;SDS011;7693;49.266;7.104;2023-05-07T05:53:25;3.13;;;3.00;;
15183;SDS011;7693;49.266;7.104;2023-05-07T05:55:50;3.77;;;3.53;;
15183;SDS011;7693;49.266;7.104;2023-05-07T05:58:16;3.13;;;2.93;;
15183;SDS011;7693;49.266;7.104;2023-05-07T06:00:42;3.83;;;3.57;;
15183;SDS011;7693;49.266;7.104;2023-05-07T06:03:07;3.25;;;2.97;;
15183;SDS011;7693;49.266;7.104;2023-05-07T06:05:33;3.75;;;3.45;;
15183;SDS011;7693;49.266;7.104;2023-05-07T06:07:58;3.97;;;3.40;;
15183;SDS011;7693;49.266;7.104;2023-05-07T06:10:24;3.30;;;3.17;;
15183;SDS011;7693;49.266;7.104;2023-05-07T06:12:50;3.92;;;3.15;;
15183;SDS011;7693;49.266;7.104;2023-05-07T06:15:16;3.03;;;2.83;;
15183;SDS011;7693;49.266;7.104;2023-05-07T06:17:41;3.58;;;3.25;;
15183;SDS011;7693;49.266;7.104;2023-05-07T06:20:07;3.42;;;3.25;;
15183;SDS011;7693;49.266;7.104;2023-05-07T06:22:33;3.30;;;3.10;;
15183;SDS011;7693;49.266;7.104;2023-05-07T06:24:58;3.30;;;3.00;;
15183;SDS011;7693;49.266;7.104;2023-05-07T06:27:24;3.00;;;2.90;;
15183;SDS011;7693;49.266;7.104;2023-05-07T06:29:50;3.58;;;3.28;;
15183;SDS011;7693;49.266;7.104;2023-05-07T06:32:15;3.10;;;2.85;;
15183;SDS011;7693;49.266;7.104;2023-05-07T06:34:42;3.00;;;2.80;;
15183;SDS011;7693;49.266;7.104;2023-05-07T06:37:07;3.42;;;3.03;;
15183;SDS011;7693;49.266;7.104;2023-05-07T06:39:33;3.30;;;2.67;;
15183;SDS011;7693;49.266;7.104;2023-05-07T06:41:59;3.08;;;2.83;;
15183;SDS011;7693;49.266;7.104;2023-05-07T06:44:25;3.03;;;2.88;;
15183;SDS011;7693;49.266;7.104;2023-05-07T06:46:51;3.25;;;3.13;;
15183;SDS011;7693;49.266;7.104;2023-05-07T06:49:17;3.42;;;3.13;;
15183;SDS011;7693;49.266;7.104;2023-05-07T06:51:42;3.35;;;3.05;;
15183;SDS011;7693;49.266;7.104;2023-05-07T06:54:08;2.85;;;2.63;;
15183;SDS011;7693;49.266;7.104;2023-05-07T06:56:33;4.30;;;3.47;;
15183;SDS011;7693;49.266;7.104;2023-05-07T06:59:00;3.38;;;3.10;;
15183;SDS011;7693;49.266;7.104;2023-05-07T07:01:26;3.47;;;3.20;;
15183;SDS011;7693;49.266;7.104;2023-05-07T07:03:52;2.80;;;2.63;;
15183;SDS011;7693;49.266;7.104;2023-05-07T07:06:18;3.13;;;2.80;;
15183;SDS011;7693;49.266;7.104;2023-05-07T07:08:43;3.15;;;2.95;;
15183;SDS011;7693;49.266;7.104;2023-05-07T07:11:09;2.60;;;2.53;;
15183;SDS011;7693;49.266;7.104;2023-05-07T07:13:35;3.30;;;2.70;;
15183;SDS011;7693;49.266;7.104;2023-05-07T07:16:01;3.35;;;2.80;;
15183;SDS011;7693;49.266;7.104;2023-05-07T07:18:27;2.90;;;2.80;;
15183;SDS011;7693;49.266;7.104;2023-05-07T07:20:53;3.10;;;2.85;;
15183;SDS011;7693;49.266;7.104;2023-05-07T07:23:19;2.80;;;2.70;;
15183;SDS011;7693;49.266;7.104;2023-05-07T07:25:45;2.75;;;2.60;;
15183;SDS011;7693;49.266;7.104;2023-05-07T07:28:10;5.85;;;2.45;;
15183;SDS011;7693;49.266;7.104;2023-05-07T07:30:36;4.68;;;2.55;;
15183;SDS011;7693;49.266;7.104;2023-05-07T07:33:02;5.70;;;2.75;;
15183;SDS011;7693;49.266;7.104;2023-05-07T07:35:29;2.75;;;2.55;;
15183;SDS011;7693;49.266;7.104;2023-05-07T07:37:55;2.65;;;2.55;;
15183;SDS011;7693;49.266;7.104;2023-05-07T07:40:20;2.75;;;2.55;;
15183;SDS011;7693;49.266;7.104;2023-05-07T07:42:46;2.97;;;2.65;;
15183;SDS011;7693;49.266;7.104;2023-05-07T07:45:14;2.58;;;2.47;;
15183;SDS011;7693;49.266;7.104;2023-05-07T07:47:40;2.83;;;2.65;;
15183;SDS011;7693;49.266;7.104;2023-05-07T07:50:06;2.40;;;2.30;;
15183;SDS011;7693;49.266;7.104;2023-05-07T07:52:32;2.50;;;2.40;;
15183;SDS011;7693;49.266;7.104;2023-05-07T07:54:58;2.45;;;2.35;;
15183;SDS011;7693;49.266;7.104;2023-05-07T07:57:24;2.70;;;2.50;;
15183;SDS011;7693;49.266;7.104;2023-05-07T07:59:50;2.75;;;2.65;;
15183;SDS011;7693;49.266;7.104;2023-05-07T08:02:16;2.33;;;2.20;;
15183;SDS011;7693;49.266;7.104;2023-05-07T08:04:42;2.63;;;2.53;;
15183;SDS011;7693;49.266;7.104;2023-05-07T08:07:10;2.60;;;2.50;;
15183;SDS011;7693;49.266;7.104;2023-05-07T08:09:36;2.67;;;2.22;;
15183;SDS011;7693;49.266;7.104;2023-05-07T08:12:05;2.38;;;2.28;;
15183;SDS011;7693;49.266;7.104;2023-05-07T08:14:31;2.85;;;2.65;;
15183;SDS011;7693;49.266;7.104;2023-05-07T08:16:57;2.40;;;2.35;;
15183;SDS011;7693;49.266;7.104;2023-05-07T08:19:22;3.08;;;2.72;;
15183;SDS011;7693;49.266;7.104;2023-05-07T08:21:48;3.67;;;2.50;;
15183;SDS011;7693;49.266;7.104;2023-05-07T08:24:14;2.67;;;2.47;;
15183;SDS011;7693;49.266;7.104;2023-05-07T08:26:40;2.55;;;2.30;;
15183;SDS011;7693;49.266;7.104;2023-05-07T08:29:06;2.30;;;2.20;;
15183;SDS011;7693;49.266;7.104;2023-05-07T08:31:35;4.82;;;2.15;;
15183;SDS011;7693;49.266;7.104;2023-05-07T08:34:00;3.17;;;2.70;;
15183;SDS011;7693;49.266;7.104;2023-05-07T08:36:26;2.65;;;2.10;;
15183;SDS011;7693;49.266;7.104;2023-05-07T08:38:52;2.22;;;2.10;;
15183;SDS011;7693;49.266;7.104;2023-05-07T08:41:17;2.33;;;2.20;;
15183;SDS011;7693;49.266;7.104;2023-05-07T08:43:48;2.30;;;2.20;;
15183;SDS011;7693;49.266;7.104;2023-05-07T08:46:19;2.42;;;2.30;;
15183;SDS011;7693;49.266;7.104;2023-05-07T08:48:49;2.15;;;2.05;;
15183;SDS011;7693;49.266;7.104;2023-05-07T08:51:16;2.45;;;2.30;;
15183;SDS011;7693;49.266;7.104;2023-05-07T08:53:43;2.90;;;2.60;;
15183;SDS011;7693;49.266;7.104;2023-05-07T08:56:09;2.40;;;2.20;;
15183;SDS011;7693;49.266;7.104;2023-05-07T08:58:35;2.90;;;2.25;;
15183;SDS011;7693;49.266;7.104;2023-05-07T09:01:02;2.00;;;2.00;;
15183;SDS011;7693;49.266;7.104;2023-05-07T09:03:32;2.38;;;2.17;;
15183;SDS011;7693;49.266;7.104;2023-05-07T09:05:58;1.90;;;1.90;;
15183;SDS011;7693;49.266;7.104;2023-05-07T09:08:26;2.25;;;2.15;;
15183;SDS011;7693;49.266;7.104;2023-05-07T09:10:52;2.47;;;2.30;;
15183;SDS011;7693;49.266;7.104;2023-05-07T09:13:21;2.08;;;1.98;;
15183;SDS011;7693;49.266;7.104;2023-05-07T09:15:49;2.70;;;2.60;;
15183;SDS011;7693;49.266;7.104;2023-05-07T09:18:15;2.25;;;2.15;;
15183;SDS011;7693;49.266;7.104;2023-05-07T09:20:41;2.00;;;1.90;;
15183;SDS011;7693;49.266;7.104;2023-05-07T09:23:07;2.05;;;1.80;;
15183;SDS011;7693;49.266;7.104;2023-05-07T09:25:33;2.20;;;2.10;;
15183;SDS011;7693;49.266;7.104;2023-05-07T09:28:01;2.30;;;2.20;;
15183;SDS011;7693;49.266;7.104;2023-05-07T09:30:30;2.10;;;1.90;;
15183;SDS011;7693;49.266;7.104;2023-05-07T09:33:03;2.30;;;2.10;;
15183;SDS011;7693;49.266;7.104;2023-05-07T09:35:29;3.28;;;2.22;;
15183;SDS011;7693;49.266;7.104;2023-05-07T09:37:55;3.40;;;1.88;;
15183;SDS011;7693;49.266;7.104;2023-05-07T09:40:22;2.35;;;2.15;;
15183;SDS011;7693;49.266;7.104;2023-05-07T09:42:49;2.13;;;2.00;;
15183;SDS011;7693;49.266;7.104;2023-05-07T09:45:16;2.05;;;1.95;;
15183;SDS011;7693;49.266;7.104;2023-05-07T09:47:46;2.88;;;1.90;;
15183;SDS011;7693;49.266;7.104;2023-05-07T09:50:14;2.08;;;1.98;;
15183;SDS011;7693;49.266;7.104;2023-05-07T09:52:41;2.28;;;2.08;;
15183;SDS011;7693;49.266;7.104;2023-05-07T09:55:08;1.90;;;1.90;;
15183;SDS011;7693;49.266;7.104;2023-05-07T09:57:35;2.65;;;2.03;;
15183;SDS011;7693;49.266;7.104;2023-05-07T10:00:02;1.90;;;1.80;;
15183;SDS011;7693;49.266;7.104;2023-05-07T10:02:31;2.30;;;2.20;;
15183;SDS011;7693;49.266;7.104;2023-05-07T10:04:58;1.90;;;1.80;;
15183;SDS011;7693;49.266;7.104;2023-05-07T10:07:25;2.03;;;2.03;;
15183;SDS011;7693;49.266;7.104;2023-05-07T10:09:51;2.60;;;2.40;;
15183;SDS011;7693;49.266;7.104;2023-05-07T10:12:18;3.15;;;1.92;;
15183;SDS011;7693;49.266;7.104;2023-05-07T10:14:45;1.88;;;1.83;;
15183;SDS011;7693;49.266;7.104;2023-05-07T12:48:56;2.60;;;2.45;;
15183;SDS011;7693;49.266;7.104;2023-05-07T12:51:22;2.47;;;2.20;;
15183;SDS011;7693;49.266;7.104;2023-05-07T12:53:47;2.47;;;2.28;;
15183;SDS011;7693;49.266;7.104;2023-05-07T12:56:15;2.92;;;2.72;;
15183;SDS011;7693;49.266;7.104;2023-05-07T12:58:41;2.83;;;2.72;;
15183;SDS011;7693;49.266;7.104;2023-05-07T13:01:07;2.40;;;2.30;;
15183;SDS011;7693;49.266;7.104;2023-05-07T13:03:35;3.58;;;3.33;;
15183;SDS011;7693;49.266;7.104;2023-05-07T13:06:02;3.05;;;2.88;;
15183;SDS011;7693;49.266;7.104;2023-05-07T13:08:38;2.60;;;2.50;;
15183;SDS011;7693;49.266;7.104;2023-05-07T13:11:06;5.35;;;3.10;;
15183;SDS011;7693;49.266;7.104;2023-05-07T13:13:34;3.55;;;3.10;;
15183;SDS011;7693;49.266;7.104;2023-05-07T13:16:04;3.58;;;3.38;;
15183;SDS011;7693;49.266;7.104;2023-05-07T13:18:30;3.10;;;2.90;;
15183;SDS011;7693;49.266;7.104;2023-05-07T13:20:57;5.60;;;5.20;;
15183;SDS011;7693;49.266;7.104;2023-05-07T13:23:23;7.07;;;6.45;;
15183;SDS011;7693;49.266;7.104;2023-05-07T13:25:49;4.53;;;4.32;;
15183;SDS011;7693;49.266;7.104;2023-05-07T13:28:15;4.13;;;3.92;;
15183;SDS011;7693;49.266;7.104;2023-05-07T13:30:41;4.07;;;3.78;;
15183;SDS011;7693;49.266;7.104;2023-05-07T13:33:07;4.95;;;3.70;;
15183;SDS011;7693;49.266;7.104;2023-05-07T13:35:32;3.47;;;3.22;;
15183;SDS011;7693;49.266;7.104;2023-05-07T13:37:58;4.82;;;3.35;;
15183;SDS011;7693;49.266;7.104;2023-05-07T13:40:24;3.40;;;3.10;;
15183;SDS011;7693;49.266;7.104;2023-05-07T13:42:50;3.60;;;3.30;;
15183;SDS011;7693;49.266;7.104;2023-05-07T13:45:16;3.28;;;2.97;;
15183;SDS011;7693;49.266;7.104;2023-05-07T13:47:43;3.30;;;3.20;;
15183;SDS011;7693;49.266;7.104;2023-05-07T13:50:09;3.22;;;2.90;;
15183;SDS011;7693;49.266;7.104;2023-05-07T13:52:36;3.72;;;3.42;;
15183;SDS011;7693;49.266;7.104;2023-05-07T13:55:06;3.63;;;3.33;;
15183;SDS011;7693;49.266;7.104;2023-05-07T13:57:32;4.13;;;2.80;;
15183;SDS011;7693;49.266;7.104;2023-05-07T13:59:57;3.35;;;3.10;;
15183;SDS011;7693;49.266;7.104;2023-05-07T14:02:23;3.38;;;3.20;;
15183;SDS011;7693;49.266;7.104;2023-05-07T14:04:49;3.55;;;3.30;;
15183;SDS011;7693;49.266;7.104;2023-05-07T14:07:14;4.13;;;3.08;;
15183;SDS011;7693;49.266;7.104;2023-05-07T14:09:40;3.45;;;3.25;;
15183;SDS011;7693;49.266;7.104;2023-05-07T14:12:05;3.65;;;3.30;;
15183;SDS011;7693;49.266;7.104;2023-05-07T14:14:31;3.75;;;3.00;;
15183;SDS011;7693;49.266;7.104;2023-05-07T14:16:57;3.42;;;3.13;;
15183;SDS011;7693;49.266;7.104;2023-05-07T14:19:23;3.00;;;2.80;;
15183;SDS011;7693;49.266;7.104;2023-05-07T14:21:52;3.15;;;2.90;;
15183;SDS011;7693;49.266;7.104;2023-05-07T14:24:17;3.58;;;3.28;;
15183;SDS011;7693;49.266;7.104;2023-05-07T14:26:43;3.42;;;2.97;;
15183;SDS011;7693;49.266;7.104;2023-05-07T14:29:10;3.30;;;3.10;;
15183;SDS011;7693;49.266;7.104;2023-05-07T14:31:35;3.65;;;3.40;;
15183;SDS011;7693;49.266;7.104;2023-05-07T14:34:01;3.30;;;3.10;;
15183;SDS011;7693;49.266;7.104;2023-05-07T14:36:27;3.60;;;3.30;;
15183;SDS011;7693;49.266;7.104;2023-05-07T14:38:53;3.50;;;3.20;;
15183;SDS011;7693;49.266;7.104;2023-05-07T14:41:19;3.20;;;3.03;;
15183;SDS011;7693;49.266;7.104;2023-05-07T14:43:46;3.33;;;3.03;;
15183;SDS011;7693;49.266;7.104;2023-05-07T14:46:15;3.50;;;3.20;;
15183;SDS011;7693;49.266;7.104;2023-05-07T14:48:43;3.53;;;3.25;;
15183;SDS011;7693;49.266;7.104;2023-05-07T14:51:10;3.13;;;2.92;;
15183;SDS011;7693;49.266;7.104;2023-05-07T14:53:36;3.30;;;3.10;;
15183;SDS011;7693;49.266;7.104;2023-05-07T14:56:01;4.57;;;3.40;;
15183;SDS011;7693;49.266;7.104;2023-05-07T14:58:28;3.28;;;3.13;;
15183;SDS011;7693;49.266;7.104;2023-05-07T15:00:53;3.47;;;3.20;;
15183;SDS011;7693;49.266;7.104;2023-05-07T15:03:19;2.88;;;2.67;;
15183;SDS011;7693;49.266;7.104;2023-05-07T15:05:45;3.10;;;2.90;;
15183;SDS011;7693;49.266;7.104;2023-05-07T15:08:10;3.25;;;3.15;;
15183;SDS011;7693;49.266;7.104;2023-05-07T15:10:36;6.22;;;3.20;;
15183;SDS011;7693;49.266;7.104;2023-05-07T15:13:06;3.17;;;2.90;;
15183;SDS011;7693;49.266;7.104;2023-05-07T15:15:36;2.92;;;2.75;;
15183;SDS011;7693;49.266;7.104;2023-05-07T15:18:02;6.32;;;3.22;;
15183;SDS011;7693;49.266;7.104;2023-05-07T15:20:28;3.05;;;2.88;;
15183;SDS011;7693;49.266;7.104;2023-05-07T15:22:53;8.25;;;3.00;;
15183;SDS011;7693;49.266;7.104;2023-05-07T15:25:20;3.22;;;3.03;;
15183;SDS011;7693;49.266;7.104;2023-05-07T15:27:45;2.85;;;2.75;;
15183;SDS011;7693;49.266;7.104;2023-05-07T15:30:11;4.43;;;2.83;;
15183;SDS011;7693;49.266;7.104;2023-05-07T15:32:39;2.70;;;2.50;;
15183;SDS011;7693;49.266;7.104;2023-05-07T15:35:06;4.00;;;2.70;;
15183;SDS011;7693;49.266;7.104;2023-05-07T15:37:32;3.00;;;2.80;;
15183;SDS011;7693;49.266;7.104;2023-05-07T15:39:58;3.63;;;2.78;;
15183;SDS011;7693;49.266;7.104;2023-05-07T15:42:24;2.72;;;2.53;;
15183;SDS011;7693;49.266;7.104;2023-05-07T15:44:49;2.65;;;2.45;;
15183;SDS011;7693;49.266;7.104;2023-05-07T15:47:15;2.38;;;2.28;;
15183;SDS011;7693;49.266;7.104;2023-05-07T15:49:41;2.80;;;2.58;;
15183;SDS011;7693;49.266;7.104;2023-05-07T15:52:07;2.60;;;2.40;;
15183;SDS011;7693;49.266;7.104;2023-05-07T15:54:35;2.17;;;2.08;;
15183;SDS011;7693;49.266;7.104;2023-05-07T15:57:02;2.70;;;2.50;;
15183;SDS011;7693;49.266;7.104;2023-05-07T15:59:28;2.40;;;2.30;;
15183;SDS011;7693;49.266;7.104;2023-05-07T16:01:54;2.33;;;2.22;;
15183;SDS011;7693;49.266;7.104;2023-05-07T16:04:20;2.42;;;2.22;;
15183;SDS011;7693;49.266;7.104;2023-05-07T16:06:46;2.67;;;2.47;;
15183;SDS011;7693;49.266;7.104;2023-05-07T16:09:12;2.45;;;2.20;;
15183;SDS011;7693;49.266;7.104;2023-05-07T16:11:38;2.10;;;2.00;;
15183;SDS011;7693;49.266;7.104;2023-05-07T16:14:03;1.90;;;1.80;;
15183;SDS011;7693;49.266;7.104;2023-05-07T16:16:32;2.10;;;2.00;;
15183;SDS011;7693;49.266;7.104;2023-05-07T16:18:59;2.17;;;1.98;;
15183;SDS011;7693;49.266;7.104;2023-05-07T16:21:25;1.80;;;1.80;;
15183;SDS011;7693;49.266;7.104;2023-05-07T16:23:50;2.58;;;1.95;;
15183;SDS011;7693;49.266;7.104;2023-05-07T16:26:17;2.08;;;1.98;;
15183;SDS011;7693;49.266;7.104;2023-05-07T16:28:43;2.30;;;2.20;;
15183;SDS011;7693;49.266;7.104;2023-05-07T16:31:08;2.60;;;2.40;;
15183;SDS011;7693;49.266;7.104;2023-05-07T16:33:34;2.03;;;1.92;;
15183;SDS011;7693;49.266;7.104;2023-05-07T16:36:00;3.63;;;2.30;;
15183;SDS011;7693;49.266;7.104;2023-05-07T16:38:26;1.77;;;1.73;;
15183;SDS011;7693;49.266;7.104;2023-05-07T16:40:54;2.05;;;1.98;;
15183;SDS011;7693;49.266;7.104;2023-05-07T16:43:20;2.30;;;2.17;;
15183;SDS011;7693;49.266;7.104;2023-05-07T16:45:46;3.25;;;2.00;;
15183;SDS011;7693;49.266;7.104;2023-05-07T16:48:12;2.15;;;2.05;;
15183;SDS011;7693;49.266;7.104;2023-05-07T16:50:37;2.35;;;2.25;;
15183;SDS011;7693;49.266;7.104;2023-05-07T16:53:04;2.00;;;1.80;;
15183;SDS011;7693;49.266;7.104;2023-05-07T16:55:31;2.30;;;2.20;;
15183;SDS011;7693;49.266;7.104;2023-05-07T16:58:02;2.33;;;2.17;;
15183;SDS011;7693;49.266;7.104;2023-05-07T17:00:28;2.40;;;2.20;;
15183;SDS011;7693;49.266;7.104;2023-05-07T17:02:54;2.38;;;2.28;;
15183;SDS011;7693;49.266;7.104;2023-05-07T17:05:19;2.92;;;2.70;;
15183;SDS011;7693;49.266;7.104;2023-05-07T17:07:45;3.17;;;2.97;;
15183;SDS011;7693;49.266;7.104;2023-05-07T17:10:10;4.50;;;4.20;;
15183;SDS011;7693;49.266;7.104;2023-05-07T17:12:36;5.22;;;4.45;;
15183;SDS011;7693;49.266;7.104;2023-05-07T17:15:02;4.55;;;4.25;;
15183;SDS011;7693;49.266;7.104;2023-05-07T17:17:28;4.70;;;4.20;;
15183;SDS011;7693;49.266;7.104;2023-05-07T17:19:53;5.07;;;4.60;;
15183;SDS011;7693;49.266;7.104;2023-05-07T17:22:19;7.05;;;4.70;;
15183;SDS011;7693;49.266;7.104;2023-05-07T17:24:44;4.93;;;4.32;;
15183;SDS011;7693;49.266;7.104;2023-05-07T17:27:10;4.95;;;4.55;;
15183;SDS011;7693;49.266;7.104;2023-05-07T17:29:35;5.00;;;4.60;;
15183;SDS011;7693;49.266;7.104;2023-05-07T17:32:01;5.70;;;5.18;;
15183;SDS011;7693;49.266;7.104;2023-05-07T17:34:27;4.00;;;3.80;;
15183;SDS011;7693;49.266;7.104;2023-05-07T17:36:52;4.25;;;3.92;;
15183;SDS011;7693;49.266;7.104;2023-05-07T17:39:18;6.50;;;4.00;;
15183;SDS011;7693;49.266;7.104;2023-05-07T17:41:44;4.00;;;3.60;;
15183;SDS011;7693;49.266;7.104;2023-05-07T17:44:10;4.07;;;3.78;;
15183;SDS011;7693;49.266;7.104;2023-05-07T17:46:36;3.47;;;3.25;;
15183;SDS011;7693;49.266;7.104;2023-05-07T17:49:01;2.25;;;2.15;;
15183;SDS011;7693;49.266;7.104;2023-05-07T17:51:27;5.25;;;1.83;;
15183;SDS011;7693;49.266;7.104;2023-05-07T17:53:53;1.63;;;1.48;;
15183;SDS011;7693;49.266;7.104;2023-05-07T17:56:20;1.52;;;1.42;;
15183;SDS011;7693;49.266;7.104;2023-05-07T17:58:45;3.00;;;1.65;;
15183;SDS011;7693;49.266;7.104;2023-05-07T18:01:11;1.40;;;1.40;;
15183;SDS011;7693;49.266;7.104;2023-05-07T18:03:36;4.60;;;1.60;;
15183;SDS011;7693;49.266;7.104;2023-05-07T18:06:02;2.25;;;2.15;;
15183;SDS011;7693;49.266;7.104;2023-05-07T18:08:28;2.05;;;1.95;;
15183;SDS011;7693;49.266;7.104;2023-05-07T18:10:53;1.63;;;1.63;;
15183;SDS011;7693;49.266;7.104;2023-05-07T18:13:19;4.97;;;1.83;;
15183;SDS011;7693;49.266;7.104;2023-05-07T18:15:45;1.50;;;1.40;;
15183;SDS011;7693;49.266;7.104;2023-05-07T18:18:10;1.90;;;1.50;;
15183;SDS011;7693;49.266;7.104;2023-05-07T18:20:36;1.85;;;1.60;;
15183;SDS011;7693;49.266;7.104;2023-05-07T18:23:02;1.70;;;1.60;;
15183;SDS011;7693;49.266;7.104;2023-05-07T18:25:28;1.70;;;1.60;;
15183;SDS011;7693;49.266;7.104;2023-05-07T18:27:54;2.20;;;2.10;;
15183;SDS011;7693;49.266;7.104;2023-05-07T18:30:20;1.88;;;1.77;;
15183;SDS011;7693;49.266;7.104;2023-05-07T18:32:46;2.35;;;1.98;;
15183;SDS011;7693;49.266;7.104;2023-05-07T18:35:12;2.50;;;1.85;;
15183;SDS011;7693;49.266;7.104;2023-05-07T18:37:38;2.20;;;1.58;;
15183;SDS011;7693;49.266;7.104;2023-05-07T18:40:03;1.98;;;1.88;;
15183;SDS011;7693;49.266;7.104;2023-05-07T18:42:30;1.60;;;1.60;;
15183;SDS011;7693;49.266;7.104;2023-05-07T18:44:56;1.75;;;1.75;;
15183;SDS011;7693;49.266;7.104;2023-05-07T18:47:22;1.83;;;1.73;;
15183;SDS011;7693;49.266;7.104;2023-05-07T18:49:48;1.75;;;1.75;;
15183;SDS011;7693;49.266;7.104;2023-05-07T18:52:13;1.90;;;1.80;;
15183;SDS011;7693;49.266;7.104;2023-05-07T18:54:40;4.10;;;2.00;;
15183;SDS011;7693;49.266;7.104;2023-05-07T18:57:07;1.83;;;1.73;;
15183;SDS011;7693;49.266;7.104;2023-05-07T18:59:32;1.88;;;1.77;;
15183;SDS011;7693;49.266;7.104;2023-05-07T19:01:58;1.50;;;1.50;;
15183;SDS011;7693;49.266;7.104;2023-05-07T19:04:24;3.63;;;1.83;;
15183;SDS011;7693;49.266;7.104;2023-05-07T19:06:49;1.77;;;1.67;;
15183;SDS011;7693;49.266;7.104;2023-05-07T19:09:15;2.15;;;1.92;;
15183;SDS011;7693;49.266;7.104;2023-05-07T19:11:40;2.20;;;1.80;;
15183;SDS011;7693;49.266;7.104;2023-05-07T19:14:06;1.63;;;1.58;;
15183;SDS011;7693;49.266;7.104;2023-05-07T19:16:35;1.70;;;1.60;;
15183;SDS011;7693;49.266;7.104;2023-05-07T19:19:00;1.88;;;1.73;;
15183;SDS011;7693;49.266;7.104;2023-05-07T19:21:26;1.90;;;1.90;;
15183;SDS011;7693;49.266;7.104;2023-05-07T19:23:52;1.75;;;1.70;;
15183;SDS011;7693;49.266;7.104;2023-05-07T19:26:21;2.08;;;1.95;;
15183;SDS011;7693;49.266;7.104;2023-05-07T19:28:47;2.10;;;2.00;;
15183;SDS011;7693;49.266;7.104;2023-05-07T19:31:17;2.22;;;2.13;;
15183;SDS011;7693;49.266;7.104;2023-05-07T19:33:44;1.70;;;1.70;;
15183;SDS011;7693;49.266;7.104;2023-05-07T19:36:09;4.53;;;1.90;;
15183;SDS011;7693;49.266;7.104;2023-05-07T19:38:35;1.70;;;1.70;;
15183;SDS011;7693;49.266;7.104;2023-05-07T19:41:00;2.00;;;1.90;;
15183;SDS011;7693;49.266;7.104;2023-05-07T19:43:26;1.88;;;1.88;;
15183;SDS011;7693;49.266;7.104;2023-05-07T19:45:52;1.73;;;1.70;;
15183;SDS011;7693;49.266;7.104;2023-05-07T19:48:18;2.33;;;2.15;;
15183;SDS011;7693;49.266;7.104;2023-05-07T19:50:46;2.55;;;2.35;;
15183;SDS011;7693;49.266;7.104;2023-05-07T19:53:12;3.22;;;2.10;;
15183;SDS011;7693;49.266;7.104;2023-05-07T19:55:38;1.95;;;1.75;;
15183;SDS011;7693;49.266;7.104;2023-05-07T19:58:03;2.42;;;2.10;;
15183;SDS011;7693;49.266;7.104;2023-05-07T20:00:29;3.20;;;2.20;;
15183;SDS011;7693;49.266;7.104;2023-05-07T20:02:57;2.28;;;2.17;;
15183;SDS011;7693;49.266;7.104;2023-05-07T20:05:23;2.28;;;2.17;;
15183;SDS011;7693;49.266;7.104;2023-05-07T20:07:51;2.30;;;2.15;;
15183;SDS011;7693;49.266;7.104;2023-05-07T20:10:17;2.00;;;1.90;;
15183;SDS011;7693;49.266;7.104;2023-05-07T20:12:43;1.98;;;1.90;;
15183;SDS011;7693;49.266;7.104;2023-05-07T20:15:09;2.17;;;2.08;;
15183;SDS011;7693;49.266;7.104;2023-05-07T20:17:38;2.10;;;2.00;;
15183;SDS011;7693;49.266;7.104;2023-05-07T20:20:03;2.35;;;2.20;;
15183;SDS011;7693;49.266;7.104;2023-05-07T20:22:29;2.22;;;2.05;;
15183;SDS011;7693;49.266;7.104;2023-05-07T20:24:56;1.83;;;1.83;;
15183;SDS011;7693;49.266;7.104;2023-05-07T20:27:21;3.03;;;2.40;;
15183;SDS011;7693;49.266;7.104;2023-05-07T20:29:49;2.25;;;2.15;;
15183;SDS011;7693;49.266;7.104;2023-05-07T20:32:16;2.15;;;2.05;;
15183;SDS011;7693;49.266;7.104;2023-05-07T20:34:43;2.38;;;2.20;;
15183;SDS011;7693;49.266;7.104;2023-05-07T20:37:09;2.05;;;2.00;;
15183;SDS011;7693;49.266;7.104;2023-05-07T20:39:38;7.15;;;2.30;;
15183;SDS011;7693;49.266;7.104;2023-05-07T20:42:07;3.25;;;2.10;;
15183;SDS011;7693;49.266;7.104;2023-05-07T20:44:32;2.33;;;2.20;;
15183;SDS011;7693;49.266;7.104;2023-05-07T20:46:59;2.50;;;2.30;;
15183;SDS011;7693;49.266;7.104;2023-05-07T20:49:25;1.85;;;1.83;;
15183;SDS011;7693;49.266;7.104;2023-05-07T20:51:50;2.53;;;2.33;;
15183;SDS011;7693;49.266;7.104;2023-05-07T20:54:16;3.15;;;2.33;;
15183;SDS011;7693;49.266;7.104;2023-05-07T20:56:42;2.40;;;2.30;;
15183;SDS011;7693;49.266;7.104;2023-05-07T20:59:07;2.20;;;2.10;;
15183;SDS011;7693;49.266;7.104;2023-05-07T21:01:33;2.20;;;2.10;;
15183;SDS011;7693;49.266;7.104;2023-05-07T21:03:59;2.53;;;2.40;;
15183;SDS011;7693;49.266;7.104;2023-05-07T21:06:26;2.22;;;2.17;;
15183;SDS011;7693;49.266;7.104;2023-05-07T21:08:52;2.50;;;2.35;;
15183;SDS011;7693;49.266;7.104;2023-05-07T21:11:17;2.40;;;2.20;;
15183;SDS011;7693;49.266;7.104;2023-05-07T21:13:43;2.85;;;2.65;;
15183;SDS011;7693;49.266;7.104;2023-05-07T21:16:09;2.72;;;2.53;;
15183;SDS011;7693;49.266;7.104;2023-05-07T21:18:35;2.85;;;2.65;;
15183;SDS011;7693;49.266;7.104;2023-05-07T21:21:01;2.95;;;2.80;;
15183;SDS011;7693;49.266;7.104;2023-05-07T21:23:30;3.33;;;2.63;;
15183;SDS011;7693;49.266;7.104;2023-05-07T21:25:56;2.67;;;2.58;;
15183;SDS011;7693;49.266;7.104;2023-05-07T21:28:21;2.85;;;2.70;;
15183;SDS011;7693;49.266;7.104;2023-05-07T21:30:47;3.03;;;2.83;;
15183;SDS011;7693;49.266;7.104;2023-05-07T21:33:13;2.80;;;2.60;;
15183;SDS011;7693;49.266;7.104;2023-05-07T21:35:38;5.65;;;2.92;;
15183;SDS011;7693;49.266;7.104;2023-05-07T21:38:04;3.00;;;2.90;;
15183;SDS011;7693;49.266;7.104;2023-05-07T21:40:29;2.80;;;2.60;;
15183;SDS011;7693;49.266;7.104;2023-05-07T21:42:55;2.90;;;2.70;;
15183;SDS011;7693;49.266;7.104;2023-05-07T21:45:22;3.13;;;2.90;;
15183;SDS011;7693;49.266;7.104;2023-05-07T21:47:47;3.40;;;3.20;;
15183;SDS011;7693;49.266;7.104;2023-05-07T21:50:13;3.13;;;3.00;;
15183;SDS011;7693;49.266;7.104;2023-05-07T21:52:38;3.15;;;2.83;;
15183;SDS011;7693;49.266;7.104;2023-05-07T21:55:04;3.35;;;3.13;;
15183;SDS011;7693;49.266;7.104;2023-05-07T21:57:30;3.28;;;2.92;;
15183;SDS011;7693;49.266;7.104;2023-05-07T21:59:55;3.17;;;2.97;;
15183;SDS011;7693;49.266;7.104;2023-05-07T22:02:21;3.20;;;3.00;;
15183;SDS011;7693;49.266;7.104;2023-05-07T22:04:47;3.05;;;2.92;;
15183;SDS011;7693;49.266;7.104;2023-05-07T22:07:12;4.43;;;3.38;;
15183;SDS011;7693;49.266;7.104;2023-05-07T22:09:38;3.78;;;3.10;;
15183;SDS011;7693;49.266;7.104;2023-05-07T22:12:03;3.53;;;3.20;;
15183;SDS011;7693;49.266;7.104;2023-05-07T22:14:29;3.10;;;3.00;;
15183;SDS011;7693;49.266;7.104;2023-05-07T22:16:54;3.50;;;3.25;;
15183;SDS011;7693;49.266;7.104;2023-05-07T22:19:20;3.55;;;3.05;;
15183;SDS011;7693;49.266;7.104;2023-05-07T22:21:46;2.97;;;2.88;;
15183;SDS011;7693;49.266;7.104;2023-05-07T22:24:11;3.50;;;3.00;;
15183;SDS011;7693;49.266;7.104;2023-05-07T22:26:39;4.00;;;3.45;;
15183;SDS011;7693;49.266;7.104;2023-05-07T22:29:08;3.28;;;3.08;;
15183;SDS011;7693;49.266;7.104;2023-05-07T22:31:33;3.70;;;3.22;;
15183;SDS011;7693;49.266;7.104;2023-05-07T22:33:59;3.13;;;2.97;;
15183;SDS011;7693;49.266;7.104;2023-05-07T22:36:25;5.43;;;3.30;;
15183;SDS011;7693;49.266;7.104;2023-05-07T22:38:51;2.97;;;2.85;;
